createdAt,value
2023-01-31T00:00:12.870Z,3.20
2023-01-31T00:02:39.916Z,3.20
2023-01-31T00:05:07.013Z,3.20
2023-01-31T00:07:33.992Z,3.20
2023-01-31T00:10:00.961Z,3.30
2023-01-31T00:12:27.957Z,3.30
2023-01-31T00:14:54.909Z,3.30
2023-01-31T00:17:21.812Z,3.30
2023-01-31T00:19:48.766Z,3.30
2023-01-31T00:22:15.689Z,3.00
2023-01-31T00:24:42.646Z,3.30
2023-01-31T00:27:09.614Z,3.30
2023-01-31T00:29:37.125Z,3.20
2023-01-31T00:32:04.888Z,3.20
2023-01-31T00:34:31.910Z,3.20
2023-01-31T00:36:58.898Z,3.20
2023-01-31T00:39:25.994Z,3.20
2023-01-31T00:41:52.968Z,3.10
2023-01-31T00:44:19.962Z,3.10
2023-01-31T00:46:46.972Z,3.10
2023-01-31T00:49:13.919Z,3.10
2023-01-31T00:51:40.834Z,2.90
2023-01-31T00:54:07.820Z,3.10
2023-01-31T00:56:35.416Z,3.10
2023-01-31T00:59:04.638Z,3.10
2023-01-31T01:01:31.663Z,3.20
2023-01-31T01:03:58.715Z,3.20
2023-01-31T01:06:26.097Z,3.20
2023-01-31T01:08:53.631Z,3.20
2023-01-31T01:11:22.526Z,3.20
2023-01-31T01:13:49.585Z,3.20
2023-01-31T01:16:21.079Z,3.20
2023-01-31T01:18:49.375Z,3.30
2023-01-31T01:21:21.239Z,3.30
2023-01-31T01:23:48.171Z,3.30
2023-01-31T01:26:22.673Z,3.30
2023-01-31T01:28:50.146Z,3.30
2023-01-31T01:31:18.023Z,3.30
2023-01-31T01:33:46.237Z,3.30
2023-01-31T01:36:16.238Z,3.30
2023-01-31T01:38:43.825Z,3.30
2023-01-31T01:41:11.725Z,3.30
2023-01-31T01:43:43.365Z,3.30
2023-01-31T01:46:13.772Z,3.30
2023-01-31T01:48:41.146Z,3.20
2023-01-31T01:51:08.260Z,3.20
2023-01-31T01:53:36.286Z,3.20
2023-01-31T01:56:11.501Z,3.20
2023-01-31T01:58:48.512Z,3.20
2023-01-31T02:01:16.976Z,3.30
2023-01-31T02:03:47.941Z,3.20
2023-01-31T02:06:15.204Z,3.20
2023-01-31T02:08:42.557Z,3.20
2023-01-31T02:11:30.714Z,3.20
2023-01-31T02:14:02.801Z,3.20
2023-01-31T02:16:30.100Z,3.20
2023-01-31T02:18:58.297Z,3.20
2023-01-31T02:21:45.455Z,3.20
2023-01-31T02:24:31.123Z,3.10
2023-01-31T02:26:59.039Z,3.10
2023-01-31T02:29:44.885Z,3.10
2023-01-31T02:32:12.001Z,3.00
2023-01-31T02:35:00.783Z,3.00
2023-01-31T02:37:42.766Z,3.00
2023-01-31T02:40:17.969Z,2.90
2023-01-31T02:42:48.208Z,2.90
2023-01-31T02:45:35.621Z,3.00
2023-01-31T02:48:03.117Z,3.00
2023-01-31T02:50:50.106Z,3.00
2023-01-31T02:53:25.939Z,3.00
2023-01-31T02:56:17.939Z,2.80
2023-01-31T02:58:49.816Z,3.00
2023-01-31T03:01:23.328Z,3.00
2023-01-31T03:03:52.720Z,3.00
2023-01-31T03:06:25.756Z,2.90
2023-01-31T03:09:04.703Z,2.90
2023-01-31T03:11:53.453Z,2.90
2023-01-31T03:14:21.520Z,2.90
2023-01-31T03:17:10.740Z,2.90
2023-01-31T03:19:45.923Z,2.90
2023-01-31T03:22:18.474Z,2.90
2023-01-31T03:24:47.548Z,2.90
2023-01-31T03:27:15.168Z,2.90
2023-01-31T03:29:43.913Z,3.00
2023-01-31T03:32:20.790Z,3.00
2023-01-31T03:34:47.840Z,2.90
2023-01-31T03:37:34.630Z,2.90
2023-01-31T03:40:27.456Z,2.90
2023-01-31T03:42:56.035Z,2.90
2023-01-31T03:45:38.636Z,2.90
2023-01-31T03:48:10.270Z,2.90
2023-01-31T03:50:40.691Z,2.90
2023-01-31T03:53:10.802Z,2.90
2023-01-31T03:55:42.924Z,2.90
2023-01-31T03:58:11.074Z,2.90
2023-01-31T04:00:42.300Z,2.90
2023-01-31T04:03:18.547Z,2.90
2023-01-31T04:05:46.643Z,2.90
2023-01-31T04:08:14.433Z,2.80
2023-01-31T04:10:44.143Z,2.80
2023-01-31T04:13:11.444Z,2.80
2023-01-31T04:15:38.443Z,2.90
2023-01-31T04:18:05.468Z,2.90
2023-01-31T04:20:32.539Z,2.80
2023-01-31T04:23:00.147Z,2.80
2023-01-31T04:25:27.127Z,2.80
2023-01-31T04:27:54.063Z,2.80
2023-01-31T04:30:21.067Z,2.80
2023-01-31T04:32:47.986Z,2.70
2023-01-31T04:35:14.996Z,2.70
2023-01-31T04:37:41.929Z,2.70
2023-01-31T04:40:10.026Z,2.70
2023-01-31T04:42:36.985Z,2.70
2023-01-31T04:45:04.266Z,2.70
2023-01-31T04:47:31.848Z,2.60
2023-01-31T04:49:58.778Z,2.60
2023-01-31T04:52:25.813Z,2.60
2023-01-31T04:54:52.759Z,2.60
2023-01-31T04:57:19.739Z,2.60
2023-01-31T04:59:46.691Z,2.50
2023-01-31T05:02:15.332Z,2.60
2023-01-31T05:04:42.389Z,2.60
2023-01-31T05:07:09.338Z,2.50
2023-01-31T05:09:36.330Z,2.50
2023-01-31T05:12:03.622Z,2.50
2023-01-31T05:14:30.617Z,2.40
2023-01-31T05:16:57.772Z,2.40
2023-01-31T05:19:24.775Z,2.30
2023-01-31T05:22:00.866Z,2.30
2023-01-31T05:24:29.552Z,2.40
2023-01-31T05:26:58.807Z,2.40
2023-01-31T05:29:26.733Z,2.40
2023-01-31T05:31:57.686Z,2.40
2023-01-31T05:34:25.577Z,2.40
2023-01-31T05:36:52.956Z,2.40
2023-01-31T05:39:19.943Z,2.40
2023-01-31T05:41:47.044Z,2.40
2023-01-31T05:44:14.674Z,2.40
2023-01-31T05:46:42.177Z,2.40
2023-01-31T05:49:09.125Z,2.40
2023-01-31T05:51:36.065Z,2.40
2023-01-31T05:54:03.194Z,2.40
2023-01-31T05:56:30.958Z,2.40
2023-01-31T05:58:57.969Z,2.40
2023-01-31T06:01:25.779Z,2.40
2023-01-31T06:03:53.232Z,2.40
2023-01-31T06:06:21.243Z,2.30
2023-01-31T06:08:48.451Z,2.30
2023-01-31T06:11:15.860Z,2.30
2023-01-31T06:13:46.165Z,2.30
2023-01-31T06:16:13.307Z,2.40
2023-01-31T06:18:40.479Z,2.40
2023-01-31T06:21:07.777Z,2.40
2023-01-31T06:23:34.748Z,2.30
2023-01-31T06:26:01.897Z,2.30
2023-01-31T06:28:28.858Z,2.40
2023-01-31T06:30:56.061Z,2.40
2023-01-31T06:33:31.489Z,2.40
2023-01-31T06:36:05.583Z,2.40
2023-01-31T06:38:32.827Z,2.30
2023-01-31T06:40:59.777Z,2.30
2023-01-31T06:43:26.841Z,2.30
2023-01-31T06:45:53.809Z,2.30
2023-01-31T06:48:21.086Z,2.20
2023-01-31T06:50:48.317Z,2.20
2023-01-31T06:53:15.283Z,2.20
2023-01-31T06:55:42.305Z,2.20
2023-01-31T06:58:09.257Z,2.20
2023-01-31T07:00:36.234Z,2.20
2023-01-31T07:03:03.391Z,2.10
2023-01-31T07:05:30.585Z,2.10
2023-01-31T07:07:57.665Z,2.10
2023-01-31T07:10:24.647Z,2.20
2023-01-31T07:12:52.011Z,2.10
2023-01-31T07:15:19.257Z,2.00
2023-01-31T07:17:46.414Z,2.00
2023-01-31T07:20:13.712Z,2.00
2023-01-31T07:22:40.729Z,1.90
2023-01-31T07:25:07.860Z,1.90
2023-01-31T07:27:34.848Z,1.80
2023-01-31T07:30:01.837Z,1.80
2023-01-31T07:32:30.057Z,1.80
2023-01-31T07:34:57.003Z,1.80
2023-01-31T07:37:23.899Z,1.80
2023-01-31T07:39:50.977Z,1.80
2023-01-31T07:42:17.886Z,1.90
2023-01-31T07:44:45.004Z,1.90
2023-01-31T07:47:11.957Z,2.00
2023-01-31T07:49:38.939Z,2.10
2023-01-31T07:52:07.418Z,2.20
2023-01-31T07:54:35.414Z,2.30
2023-01-31T07:57:02.365Z,2.30
2023-01-31T07:59:29.777Z,2.30
2023-01-31T08:02:15.325Z,2.30
2023-01-31T08:04:42.409Z,2.50
2023-01-31T08:07:10.322Z,2.50
2023-01-31T08:09:39.184Z,2.50
2023-01-31T08:12:06.687Z,2.60
2023-01-31T08:14:33.878Z,2.60
2023-01-31T08:17:00.865Z,2.60
2023-01-31T08:19:27.889Z,2.70
2023-01-31T08:21:54.855Z,2.70
2023-01-31T08:24:21.869Z,2.80
2023-01-31T08:26:48.995Z,2.80
2023-01-31T08:29:16.005Z,2.90
2023-01-31T08:31:43.181Z,2.90
2023-01-31T08:34:11.202Z,2.90
2023-01-31T08:36:38.274Z,2.90
2023-01-31T08:39:05.545Z,3.00
2023-01-31T08:41:33.592Z,3.00
2023-01-31T08:44:02.853Z,3.10
2023-01-31T08:46:32.532Z,3.00
2023-01-31T08:49:00.892Z,3.10
2023-01-31T08:51:27.990Z,3.10
2023-01-31T08:53:55.149Z,3.10
2023-01-31T08:56:26.407Z,3.00
2023-01-31T08:58:54.335Z,3.00
2023-01-31T09:01:22.584Z,3.10
2023-01-31T09:03:50.781Z,3.10
2023-01-31T09:06:19.463Z,3.10
2023-01-31T09:08:46.625Z,3.10
2023-01-31T09:11:19.441Z,3.10
2023-01-31T09:13:47.737Z,3.20
2023-01-31T09:16:14.995Z,3.20
2023-01-31T09:18:42.094Z,3.20
2023-01-31T09:21:14.400Z,3.20
2023-01-31T09:23:42.806Z,3.20
2023-01-31T09:26:11.265Z,3.30
2023-01-31T09:28:38.482Z,3.40
2023-01-31T09:31:06.994Z,3.60
2023-01-31T09:33:34.344Z,3.30
2023-01-31T09:36:05.858Z,3.80
2023-01-31T09:38:33.257Z,3.90
2023-01-31T09:41:02.172Z,4.00
2023-01-31T09:43:32.342Z,4.10
2023-01-31T09:46:02.630Z,4.10
2023-01-31T09:48:34.984Z,4.10
2023-01-31T09:51:03.069Z,4.10
2023-01-31T09:53:32.819Z,4.00
2023-01-31T09:56:18.436Z,4.00
2023-01-31T09:59:03.818Z,3.90
2023-01-31T10:02:05.545Z,3.90
2023-01-31T10:05:11.156Z,3.80
2023-01-31T10:07:50.057Z,3.80
2023-01-31T10:10:16.926Z,3.90
2023-01-31T10:12:49.323Z,3.90
2023-01-31T10:15:26.077Z,3.90
2023-01-31T10:17:57.973Z,3.90
2023-01-31T10:20:30.700Z,3.90
2023-01-31T10:23:04.286Z,3.80
2023-01-31T10:25:46.184Z,3.80
2023-01-31T10:28:30.608Z,3.90
2023-01-31T10:31:03.455Z,3.90
2023-01-31T10:33:37.013Z,4.00
2023-01-31T10:36:09.962Z,4.00
2023-01-31T10:38:43.581Z,4.00
2023-01-31T10:41:15.852Z,4.00
2023-01-31T10:43:53.167Z,4.10
2023-01-31T10:46:20.464Z,4.20
2023-01-31T10:48:48.357Z,4.00
2023-01-31T10:51:18.676Z,4.00
2023-01-31T10:53:54.703Z,4.10
2023-01-31T10:56:40.490Z,4.20
2023-01-31T10:59:11.534Z,4.30
2023-01-31T11:01:38.606Z,4.30
2023-01-31T11:04:21.373Z,4.40
2023-01-31T11:06:48.641Z,4.60
2023-01-31T11:09:16.711Z,4.60
2023-01-31T11:11:56.374Z,4.60
2023-01-31T11:14:23.395Z,4.50
2023-01-31T11:16:56.659Z,4.50
2023-01-31T11:19:35.972Z,4.50
2023-01-31T11:22:03.847Z,4.50
2023-01-31T11:24:32.478Z,4.60
2023-01-31T11:27:04.313Z,4.70
2023-01-31T11:29:33.760Z,4.60
2023-01-31T11:32:03.512Z,4.70
2023-01-31T11:34:31.036Z,4.70
2023-01-31T11:37:12.989Z,4.70
2023-01-31T11:39:40.350Z,4.70
2023-01-31T11:42:14.878Z,4.50
2023-01-31T11:45:00.303Z,4.50
2023-01-31T11:47:42.674Z,4.50
2023-01-31T11:50:20.201Z,4.40
2023-01-31T11:52:47.433Z,4.10
2023-01-31T11:55:16.754Z,4.20
2023-01-31T11:57:43.850Z,4.30
2023-01-31T12:00:22.313Z,4.30
2023-01-31T12:02:53.981Z,4.00
2023-01-31T12:05:33.009Z,4.20
2023-01-31T12:08:00.000Z,4.20
2023-01-31T12:10:29.952Z,4.20
2023-01-31T12:13:16.682Z,3.90
2023-01-31T12:15:51.397Z,4.20
2023-01-31T12:18:28.558Z,4.30
2023-01-31T12:21:15.200Z,4.20
2023-01-31T12:23:46.478Z,4.20
2023-01-31T12:26:25.946Z,4.20
2023-01-31T12:28:55.963Z,4.30
2023-01-31T12:31:26.503Z,4.30
2023-01-31T12:34:01.046Z,4.40
2023-01-31T12:36:51.353Z,4.40
2023-01-31T12:39:24.456Z,4.30
2023-01-31T12:41:59.442Z,4.30
2023-01-31T12:44:26.439Z,4.30
2023-01-31T12:47:10.060Z,4.30
2023-01-31T12:50:21.912Z,4.20
2023-01-31T12:52:54.726Z,4.20
2023-01-31T12:55:40.509Z,4.20
2023-01-31T12:58:19.684Z,4.30
2023-01-31T13:00:49.763Z,4.20
2023-01-31T13:03:30.000Z,4.20
2023-01-31T13:06:03.696Z,4.10
2023-01-31T13:08:32.776Z,4.10
2023-01-31T13:11:05.465Z,4.10
2023-01-31T13:13:36.104Z,4.00
2023-01-31T13:16:05.834Z,4.00
2023-01-31T13:18:34.293Z,4.00
2023-01-31T13:21:04.504Z,4.00
2023-01-31T13:23:34.616Z,4.00
2023-01-31T13:26:04.749Z,4.10
2023-01-31T13:28:34.868Z,4.10
2023-01-31T13:31:07.253Z,4.10
2023-01-31T13:33:37.427Z,4.10
2023-01-31T13:36:17.894Z,4.10
2023-01-31T13:38:45.171Z,4.10
2023-01-31T13:41:23.098Z,4.10
2023-01-31T13:43:50.049Z,4.10
2023-01-31T13:46:20.031Z,4.10
2023-01-31T13:49:07.372Z,4.10
2023-01-31T13:51:49.360Z,4.00
2023-01-31T13:54:30.489Z,4.00
2023-01-31T13:56:58.471Z,4.10
2023-01-31T13:59:27.459Z,4.10
2023-01-31T14:01:55.237Z,4.10
2023-01-31T14:04:32.762Z,4.10
2023-01-31T14:07:09.727Z,4.10
2023-01-31T14:09:36.704Z,4.20
2023-01-31T14:12:06.641Z,4.10
2023-01-31T14:14:37.475Z,4.10
2023-01-31T14:17:24.732Z,4.00
2023-01-31T14:19:51.903Z,4.00
2023-01-31T14:22:20.090Z,3.90
2023-01-31T14:24:47.055Z,3.80
2023-01-31T14:27:17.668Z,3.80
2023-01-31T14:29:45.116Z,3.80
2023-01-31T14:32:31.259Z,3.80
2023-01-31T14:34:58.546Z,3.80
2023-01-31T14:37:28.520Z,3.80
2023-01-31T14:40:04.415Z,3.70
2023-01-31T14:42:45.631Z,3.80
2023-01-31T14:45:12.669Z,3.70
2023-01-31T14:47:48.480Z,3.70
2023-01-31T14:50:18.495Z,3.70
2023-01-31T14:52:48.903Z,3.70
2023-01-31T14:55:25.072Z,3.70
2023-01-31T14:57:54.425Z,3.70
2023-01-31T15:00:21.465Z,3.70
2023-01-31T15:02:51.298Z,3.60
2023-01-31T15:05:38.420Z,3.70
2023-01-31T15:08:11.674Z,3.70
2023-01-31T15:11:03.929Z,3.70
2023-01-31T15:13:36.536Z,3.70
2023-01-31T15:16:05.243Z,3.60
2023-01-31T15:18:32.317Z,3.70
2023-01-31T15:21:01.329Z,3.70
2023-01-31T15:23:29.526Z,3.70
2023-01-31T15:25:57.870Z,3.60
2023-01-31T15:28:26.447Z,3.70
2023-01-31T15:30:53.726Z,3.70
2023-01-31T15:33:23.696Z,3.70
2023-01-31T15:35:54.033Z,3.70
2023-01-31T15:38:20.923Z,3.60
2023-01-31T15:40:47.982Z,3.60
2023-01-31T15:43:18.794Z,3.60
2023-01-31T15:45:47.920Z,3.60
2023-01-31T15:48:15.903Z,3.60
2023-01-31T15:50:50.169Z,3.60
2023-01-31T15:53:17.976Z,3.60
2023-01-31T15:55:47.131Z,3.60
2023-01-31T15:58:18.695Z,3.60
2023-01-31T16:00:49.421Z,3.50
2023-01-31T16:03:20.225Z,3.40
2023-01-31T16:05:52.212Z,3.60
2023-01-31T16:08:32.863Z,3.50
2023-01-31T16:11:01.080Z,3.40
2023-01-31T16:13:28.429Z,3.40
2023-01-31T16:15:55.447Z,3.40
2023-01-31T16:18:22.434Z,3.40
2023-01-31T16:20:50.596Z,3.30
2023-01-31T16:23:20.600Z,3.30
2023-01-31T16:25:50.712Z,3.30
2023-01-31T16:28:17.596Z,3.30
2023-01-31T16:30:44.606Z,3.30
2023-01-31T16:33:16.301Z,3.20
2023-01-31T16:35:43.278Z,3.10
2023-01-31T16:38:24.634Z,3.20
2023-01-31T16:40:52.778Z,3.20
2023-01-31T16:43:27.684Z,3.20
2023-01-31T16:45:58.753Z,3.20
2023-01-31T16:48:34.786Z,3.20
2023-01-31T16:51:20.262Z,3.20
2023-01-31T16:54:07.141Z,3.20
2023-01-31T16:56:34.125Z,3.20
2023-01-31T16:59:01.083Z,3.30
2023-01-31T17:01:30.523Z,3.20
2023-01-31T17:04:05.891Z,3.20
2023-01-31T17:06:33.702Z,3.20
2023-01-31T17:09:00.936Z,3.30
2023-01-31T17:11:41.693Z,3.30
2023-01-31T17:14:10.135Z,3.30
2023-01-31T17:16:37.113Z,3.20
2023-01-31T17:19:04.042Z,3.20
2023-01-31T17:21:32.963Z,3.30
2023-01-31T17:23:59.889Z,3.30
2023-01-31T17:26:26.934Z,3.30
2023-01-31T17:29:01.485Z,3.50
2023-01-31T17:31:30.214Z,3.30
2023-01-31T17:33:57.526Z,3.30
2023-01-31T17:36:24.461Z,3.30
2023-01-31T17:38:53.126Z,3.30
2023-01-31T17:41:21.157Z,3.30
2023-01-31T17:43:48.240Z,3.30
2023-01-31T17:46:16.475Z,3.30
2023-01-31T17:48:43.988Z,3.30
2023-01-31T17:51:11.582Z,3.40
2023-01-31T17:53:49.361Z,3.40
2023-01-31T17:56:17.971Z,3.30
2023-01-31T17:58:45.021Z,3.40
2023-01-31T18:01:14.289Z,3.40
2023-01-31T18:03:42.243Z,3.40
2023-01-31T18:06:09.857Z,3.40
2023-01-31T18:08:37.029Z,3.40
2023-01-31T18:11:11.858Z,3.40
2023-01-31T18:13:39.118Z,3.40
2023-01-31T18:16:07.435Z,3.50
2023-01-31T18:18:35.529Z,3.10
2023-01-31T18:21:05.504Z,3.50
2023-01-31T18:23:33.014Z,3.60
2023-01-31T18:25:59.962Z,3.60
2023-01-31T18:28:26.872Z,3.60
2023-01-31T18:30:53.804Z,3.60
2023-01-31T18:33:20.824Z,3.70
2023-01-31T18:35:55.267Z,3.70
2023-01-31T18:38:22.205Z,3.70
2023-01-31T18:40:49.174Z,3.70
2023-01-31T18:43:16.150Z,3.70
2023-01-31T18:45:43.079Z,3.80
2023-01-31T18:48:09.981Z,3.70
2023-01-31T18:50:37.246Z,3.80
2023-01-31T18:53:04.458Z,3.80
2023-01-31T18:55:31.530Z,3.70
2023-01-31T18:57:58.663Z,3.80
2023-01-31T19:00:25.578Z,3.80
2023-01-31T19:02:53.212Z,3.80
2023-01-31T19:05:24.288Z,3.80
2023-01-31T19:07:51.313Z,3.80
2023-01-31T19:10:18.273Z,3.90
2023-01-31T19:12:45.253Z,3.70
2023-01-31T19:15:12.691Z,3.90
2023-01-31T19:17:39.781Z,4.00
2023-01-31T19:20:07.086Z,3.90
2023-01-31T19:22:34.043Z,3.90
2023-01-31T19:25:01.483Z,3.90
2023-01-31T19:27:28.511Z,3.90
2023-01-31T19:29:55.459Z,3.90
2023-01-31T19:32:22.585Z,4.00
2023-01-31T19:34:49.552Z,4.00
2023-01-31T19:37:16.524Z,4.00
2023-01-31T19:39:43.440Z,4.00
2023-01-31T19:42:10.435Z,4.00
2023-01-31T19:44:37.365Z,4.40
2023-01-31T19:47:04.377Z,4.00
2023-01-31T19:49:31.305Z,4.00
2023-01-31T19:51:58.284Z,4.00
2023-01-31T19:54:27.093Z,4.00
2023-01-31T19:56:54.882Z,4.10
2023-01-31T19:59:21.845Z,4.10
2023-01-31T20:01:48.809Z,4.10
2023-01-31T20:04:15.754Z,4.10
2023-01-31T20:06:42.694Z,4.10
2023-01-31T20:09:10.902Z,4.10
2023-01-31T20:11:37.908Z,4.10
2023-01-31T20:14:06.587Z,4.10
2023-01-31T20:16:33.723Z,4.10
2023-01-31T20:19:01.748Z,4.00
2023-01-31T20:21:28.722Z,4.00
2023-01-31T20:23:55.603Z,4.00
2023-01-31T20:26:24.446Z,4.00
2023-01-31T20:28:52.073Z,4.00
2023-01-31T20:31:19.099Z,4.10
2023-01-31T20:33:46.251Z,4.00
2023-01-31T20:36:13.538Z,4.00
2023-01-31T20:38:40.931Z,4.00
2023-01-31T20:41:08.766Z,4.00
2023-01-31T20:43:35.985Z,4.10
2023-01-31T20:46:07.399Z,4.10
2023-01-31T20:48:34.554Z,4.10
2023-01-31T20:51:01.602Z,4.10
2023-01-31T20:53:28.979Z,4.10
2023-01-31T20:55:56.087Z,4.10
2023-01-31T20:58:23.453Z,4.10
2023-01-31T21:00:51.980Z,4.10
2023-01-31T21:03:18.855Z,4.20
2023-01-31T21:05:45.771Z,4.10
2023-01-31T21:08:12.747Z,4.20
2023-01-31T21:10:41.024Z,4.20
2023-01-31T21:13:09.027Z,4.20
2023-01-31T21:15:36.072Z,4.20
2023-01-31T21:18:03.097Z,4.30
2023-01-31T21:20:30.043Z,4.30
2023-01-31T21:22:57.101Z,4.30
2023-01-31T21:25:24.162Z,4.30
2023-01-31T21:27:51.160Z,4.30
2023-01-31T21:30:18.377Z,4.00
2023-01-31T21:32:46.588Z,4.30
2023-01-31T21:35:14.752Z,4.30
2023-01-31T21:37:41.725Z,4.40
2023-01-31T21:40:09.257Z,4.40
2023-01-31T21:42:36.183Z,4.40
2023-01-31T21:45:03.156Z,4.00
2023-01-31T21:47:30.205Z,4.30
2023-01-31T21:49:57.161Z,4.40
2023-01-31T21:52:24.171Z,4.40
2023-01-31T21:54:51.170Z,4.50
2023-01-31T21:57:18.234Z,4.40
2023-01-31T21:59:46.959Z,4.50
2023-01-31T22:02:13.976Z,4.50
2023-01-31T22:04:40.899Z,4.40
2023-01-31T22:07:08.597Z,4.40
2023-01-31T22:09:35.609Z,4.40
2023-01-31T22:12:02.595Z,4.40
2023-01-31T22:14:29.510Z,4.40
2023-01-31T22:16:56.416Z,4.30
2023-01-31T22:19:23.401Z,4.10
2023-01-31T22:21:50.385Z,4.30
2023-01-31T22:24:17.330Z,4.30
2023-01-31T22:26:44.610Z,4.30
2023-01-31T22:29:12.997Z,4.30
2023-01-31T22:31:40.137Z,4.40
2023-01-31T22:34:10.033Z,4.40
2023-01-31T22:36:36.968Z,4.40
2023-01-31T22:39:04.094Z,4.40
2023-01-31T22:41:31.852Z,4.50
2023-01-31T22:43:58.874Z,4.50
2023-01-31T22:46:27.597Z,4.50
2023-01-31T22:48:54.865Z,4.60
2023-01-31T22:51:23.217Z,4.60
2023-01-31T22:53:50.369Z,4.60
2023-01-31T22:56:19.114Z,4.60
2023-01-31T22:58:46.470Z,4.70
2023-01-31T23:01:14.856Z,4.70
2023-01-31T23:03:42.147Z,4.70
2023-01-31T23:06:09.310Z,4.20
2023-01-31T23:08:36.286Z,3.20
2023-01-31T23:11:13.555Z,2.70
2023-01-31T23:13:40.600Z,2.40
2023-01-31T23:16:08.254Z,2.30
2023-01-31T23:18:35.258Z,2.20
2023-01-31T23:21:15.706Z,2.40
2023-01-31T23:23:45.291Z,2.20
2023-01-31T23:26:12.926Z,1.70
2023-01-31T23:28:40.172Z,2.30
2023-01-31T23:31:07.954Z,2.30
2023-01-31T23:33:34.949Z,2.20
2023-01-31T23:36:02.049Z,2.00
2023-01-31T23:38:29.375Z,1.90
2023-01-31T23:40:56.349Z,1.90
2023-01-31T23:43:23.277Z,1.90
2023-01-31T23:45:50.453Z,2.00
2023-01-31T23:48:17.532Z,2.00
2023-01-31T23:50:44.547Z,2.00
2023-01-31T23:53:11.475Z,2.00
2023-01-31T23:55:38.359Z,2.00
2023-01-31T23:58:05.524Z,2.00
